sensor_id;sensor_type;location;lat;lon;timestamp;P1;durP1;ratioP1;P2;durP2;ratioP2
8490;SDS011;4282;49.986;7.938;2023-08-17T00:01:52;5.60;;;3.70;;
8490;SDS011;4282;49.986;7.938;2023-08-17T00:04:20;6.45;;;3.60;;
8490;SDS011;4282;49.986;7.938;2023-08-17T00:06:49;5.13;;;3.22;;
8490;SDS011;4282;49.986;7.938;2023-08-17T00:09:17;6.15;;;3.30;;
8490;SDS011;4282;49.986;7.938;2023-08-17T00:11:46;4.50;;;3.55;;
8490;SDS011;4282;49.986;7.938;2023-08-17T00:14:16;3.55;;;3.25;;
8490;SDS011;4282;49.986;7.938;2023-08-17T00:16:45;4.45;;;3.75;;
8490;SDS011;4282;49.986;7.938;2023-08-17T00:19:13;3.85;;;3.25;;
8490;SDS011;4282;49.986;7.938;2023-08-17T00:21:41;3.80;;;3.22;;
8490;SDS011;4282;49.986;7.938;2023-08-17T00:24:10;5.57;;;3.60;;
8490;SDS011;4282;49.986;7.938;2023-08-17T00:26:38;3.28;;;2.97;;
8490;SDS011;4282;49.986;7.938;2023-08-17T00:29:06;3.50;;;3.05;;
8490;SDS011;4282;49.986;7.938;2023-08-17T00:31:37;4.97;;;3.25;;
8490;SDS011;4282;49.986;7.938;2023-08-17T00:34:05;3.65;;;3.20;;
8490;SDS011;4282;49.986;7.938;2023-08-17T00:36:34;3.97;;;3.53;;
8490;SDS011;4282;49.986;7.938;2023-08-17T00:39:02;4.90;;;3.05;;
8490;SDS011;4282;49.986;7.938;2023-08-17T00:41:30;5.10;;;3.22;;
8490;SDS011;4282;49.986;7.938;2023-08-17T00:43:59;3.90;;;3.60;;
8490;SDS011;4282;49.986;7.938;2023-08-17T00:46:27;4.13;;;3.10;;
8490;SDS011;4282;49.986;7.938;2023-08-17T00:48:59;5.93;;;3.90;;
8490;SDS011;4282;49.986;7.938;2023-08-17T00:51:27;4.63;;;2.78;;
8490;SDS011;4282;49.986;7.938;2023-08-17T00:53:58;4.70;;;3.17;;
8490;SDS011;4282;49.986;7.938;2023-08-17T00:56:27;5.00;;;3.33;;
8490;SDS011;4282;49.986;7.938;2023-08-17T00:58:56;4.97;;;3.28;;
8490;SDS011;4282;49.986;7.938;2023-08-17T01:01:24;3.97;;;3.42;;
8490;SDS011;4282;49.986;7.938;2023-08-17T01:03:52;3.63;;;3.22;;
8490;SDS011;4282;49.986;7.938;2023-08-17T01:06:23;5.40;;;3.42;;
8490;SDS011;4282;49.986;7.938;2023-08-17T01:08:52;5.95;;;3.92;;
8490;SDS011;4282;49.986;7.938;2023-08-17T01:11:22;5.00;;;3.70;;
8490;SDS011;4282;49.986;7.938;2023-08-17T01:14:04;3.90;;;3.28;;
8490;SDS011;4282;49.986;7.938;2023-08-17T01:16:38;4.20;;;3.55;;
8490;SDS011;4282;49.986;7.938;2023-08-17T01:19:08;5.15;;;3.58;;
8490;SDS011;4282;49.986;7.938;2023-08-17T01:21:41;5.60;;;3.25;;
8490;SDS011;4282;49.986;7.938;2023-08-17T01:24:13;5.70;;;3.53;;
8490;SDS011;4282;49.986;7.938;2023-08-17T01:26:42;4.32;;;3.95;;
8490;SDS011;4282;49.986;7.938;2023-08-17T01:29:10;5.93;;;3.97;;
8490;SDS011;4282;49.986;7.938;2023-08-17T01:31:40;8.40;;;3.95;;
8490;SDS011;4282;49.986;7.938;2023-08-17T01:34:12;5.22;;;4.03;;
8490;SDS011;4282;49.986;7.938;2023-08-17T01:36:45;5.20;;;4.40;;
8490;SDS011;4282;49.986;7.938;2023-08-17T01:39:19;6.43;;;3.90;;
8490;SDS011;4282;49.986;7.938;2023-08-17T01:41:49;6.10;;;3.80;;
8490;SDS011;4282;49.986;7.938;2023-08-17T01:44:19;8.32;;;5.25;;
8490;SDS011;4282;49.986;7.938;2023-08-17T01:46:48;5.32;;;4.07;;
8490;SDS011;4282;49.986;7.938;2023-08-17T01:49:16;4.45;;;3.65;;
8490;SDS011;4282;49.986;7.938;2023-08-17T01:51:45;7.57;;;4.38;;
8490;SDS011;4282;49.986;7.938;2023-08-17T01:54:13;4.53;;;4.10;;
8490;SDS011;4282;49.986;7.938;2023-08-17T01:56:44;6.50;;;4.30;;
8490;SDS011;4282;49.986;7.938;2023-08-17T01:59:12;9.82;;;4.63;;
8490;SDS011;4282;49.986;7.938;2023-08-17T02:01:40;7.38;;;4.53;;
8490;SDS011;4282;49.986;7.938;2023-08-17T02:04:09;5.90;;;4.72;;
8490;SDS011;4282;49.986;7.938;2023-08-17T02:06:37;4.65;;;4.13;;
8490;SDS011;4282;49.986;7.938;2023-08-17T02:09:05;8.30;;;4.30;;
8490;SDS011;4282;49.986;7.938;2023-08-17T02:11:33;4.45;;;3.70;;
8490;SDS011;4282;49.986;7.938;2023-08-17T02:14:04;6.40;;;4.35;;
8490;SDS011;4282;49.986;7.938;2023-08-17T02:16:32;5.75;;;3.97;;
8490;SDS011;4282;49.986;7.938;2023-08-17T02:19:01;7.18;;;4.38;;
8490;SDS011;4282;49.986;7.938;2023-08-17T02:21:29;6.05;;;5.38;;
8490;SDS011;4282;49.986;7.938;2023-08-17T02:23:58;7.55;;;6.05;;
8490;SDS011;4282;49.986;7.938;2023-08-17T02:26:26;9.18;;;6.68;;
8490;SDS011;4282;49.986;7.938;2023-08-17T02:28:54;8.18;;;5.80;;
8490;SDS011;4282;49.986;7.938;2023-08-17T02:31:25;8.88;;;6.55;;
8490;SDS011;4282;49.986;7.938;2023-08-17T02:33:53;6.75;;;6.07;;
8490;SDS011;4282;49.986;7.938;2023-08-17T02:36:25;9.88;;;7.35;;
8490;SDS011;4282;49.986;7.938;2023-08-17T02:38:54;9.32;;;8.32;;
8490;SDS011;4282;49.986;7.938;2023-08-17T02:41:23;11.82;;;7.55;;
8490;SDS011;4282;49.986;7.938;2023-08-17T02:43:51;8.25;;;6.97;;
8490;SDS011;4282;49.986;7.938;2023-08-17T02:46:19;8.68;;;6.20;;
8490;SDS011;4282;49.986;7.938;2023-08-17T02:48:50;9.05;;;6.78;;
8490;SDS011;4282;49.986;7.938;2023-08-17T02:51:19;9.18;;;6.60;;
8490;SDS011;4282;49.986;7.938;2023-08-17T02:53:47;9.38;;;7.20;;
8490;SDS011;4282;49.986;7.938;2023-08-17T02:56:15;10.38;;;6.90;;
8490;SDS011;4282;49.986;7.938;2023-08-17T02:58:43;8.25;;;6.50;;
8490;SDS011;4282;49.986;7.938;2023-08-17T03:01:12;9.52;;;6.88;;
8490;SDS011;4282;49.986;7.938;2023-08-17T03:03:40;8.07;;;5.75;;
8490;SDS011;4282;49.986;7.938;2023-08-17T03:06:11;8.68;;;5.38;;
8490;SDS011;4282;49.986;7.938;2023-08-17T03:08:39;7.97;;;5.28;;
8490;SDS011;4282;49.986;7.938;2023-08-17T03:11:07;7.03;;;5.05;;
8490;SDS011;4282;49.986;7.938;2023-08-17T03:13:35;6.22;;;4.43;;
8490;SDS011;4282;49.986;7.938;2023-08-17T03:16:03;5.25;;;4.13;;
8490;SDS011;4282;49.986;7.938;2023-08-17T03:18:32;6.05;;;4.10;;
8490;SDS011;4282;49.986;7.938;2023-08-17T03:21:00;6.35;;;4.40;;
8490;SDS011;4282;49.986;7.938;2023-08-17T03:23:32;7.53;;;5.22;;
8490;SDS011;4282;49.986;7.938;2023-08-17T03:26:00;9.38;;;5.15;;
8490;SDS011;4282;49.986;7.938;2023-08-17T03:28:28;9.23;;;5.45;;
8490;SDS011;4282;49.986;7.938;2023-08-17T03:30:56;7.55;;;4.93;;
8490;SDS011;4282;49.986;7.938;2023-08-17T03:33:25;6.93;;;4.95;;
8490;SDS011;4282;49.986;7.938;2023-08-17T03:35:53;7.30;;;4.85;;
8490;SDS011;4282;49.986;7.938;2023-08-17T03:38:21;8.80;;;5.00;;
8490;SDS011;4282;49.986;7.938;2023-08-17T03:40:52;5.90;;;4.60;;
8490;SDS011;4282;49.986;7.938;2023-08-17T03:43:20;8.20;;;5.35;;
8490;SDS011;4282;49.986;7.938;2023-08-17T03:45:50;8.50;;;5.20;;
8490;SDS011;4282;49.986;7.938;2023-08-17T03:48:18;6.78;;;5.13;;
8490;SDS011;4282;49.986;7.938;2023-08-17T03:50:47;7.70;;;5.00;;
8490;SDS011;4282;49.986;7.938;2023-08-17T03:53:18;5.97;;;4.40;;
8490;SDS011;4282;49.986;7.938;2023-08-17T03:55:47;7.00;;;4.93;;
8490;SDS011;4282;49.986;7.938;2023-08-17T03:58:18;6.22;;;3.95;;
8490;SDS011;4282;49.986;7.938;2023-08-17T04:00:48;6.25;;;4.28;;
8490;SDS011;4282;49.986;7.938;2023-08-17T04:03:17;8.73;;;4.45;;
8490;SDS011;4282;49.986;7.938;2023-08-17T04:05:45;5.22;;;3.72;;
8490;SDS011;4282;49.986;7.938;2023-08-17T04:08:13;5.93;;;3.97;;
8490;SDS011;4282;49.986;7.938;2023-08-17T04:10:41;6.70;;;4.05;;
8490;SDS011;4282;49.986;7.938;2023-08-17T04:13:10;6.45;;;4.07;;
8490;SDS011;4282;49.986;7.938;2023-08-17T04:15:40;3.90;;;3.30;;
8490;SDS011;4282;49.986;7.938;2023-08-17T04:18:09;5.15;;;3.40;;
8490;SDS011;4282;49.986;7.938;2023-08-17T04:20:37;3.70;;;3.03;;
8490;SDS011;4282;49.986;7.938;2023-08-17T04:23:05;9.07;;;3.38;;
8490;SDS011;4282;49.986;7.938;2023-08-17T04:25:33;3.13;;;2.77;;
8490;SDS011;4282;49.986;7.938;2023-08-17T04:28:02;6.78;;;2.80;;
8490;SDS011;4282;49.986;7.938;2023-08-17T04:30:31;5.57;;;2.77;;
8490;SDS011;4282;49.986;7.938;2023-08-17T04:33:01;6.43;;;2.70;;
8490;SDS011;4282;49.986;7.938;2023-08-17T04:35:30;4.10;;;2.40;;
8490;SDS011;4282;49.986;7.938;2023-08-17T04:37:58;3.28;;;2.40;;
8490;SDS011;4282;49.986;7.938;2023-08-17T04:40:26;9.25;;;3.13;;
8490;SDS011;4282;49.986;7.938;2023-08-17T04:42:55;4.93;;;2.42;;
8490;SDS011;4282;49.986;7.938;2023-08-17T04:45:23;2.83;;;2.45;;
8490;SDS011;4282;49.986;7.938;2023-08-17T04:47:51;3.30;;;2.20;;
8490;SDS011;4282;49.986;7.938;2023-08-17T04:50:22;2.85;;;2.10;;
8490;SDS011;4282;49.986;7.938;2023-08-17T04:52:50;7.05;;;2.10;;
8490;SDS011;4282;49.986;7.938;2023-08-17T04:55:19;3.33;;;2.05;;
8490;SDS011;4282;49.986;7.938;2023-08-17T04:57:47;2.50;;;2.20;;
8490;SDS011;4282;49.986;7.938;2023-08-17T05:00:15;2.27;;;2.00;;
8490;SDS011;4282;49.986;7.938;2023-08-17T05:02:50;2.97;;;1.83;;
8490;SDS011;4282;49.986;7.938;2023-08-17T05:05:21;3.63;;;1.58;;
8490;SDS011;4282;49.986;7.938;2023-08-17T05:07:51;2.20;;;2.00;;
8490;SDS011;4282;49.986;7.938;2023-08-17T05:10:20;3.50;;;1.70;;
8490;SDS011;4282;49.986;7.938;2023-08-17T05:12:48;2.30;;;1.65;;
8490;SDS011;4282;49.986;7.938;2023-08-17T05:15:16;2.35;;;1.48;;
8490;SDS011;4282;49.986;7.938;2023-08-17T05:17:45;2.20;;;1.30;;
8490;SDS011;4282;49.986;7.938;2023-08-17T05:20:13;2.03;;;1.53;;
8490;SDS011;4282;49.986;7.938;2023-08-17T05:22:44;1.77;;;1.50;;
8490;SDS011;4282;49.986;7.938;2023-08-17T05:25:12;3.17;;;1.47;;
8490;SDS011;4282;49.986;7.938;2023-08-17T05:27:40;1.73;;;1.42;;
8490;SDS011;4282;49.986;7.938;2023-08-17T05:30:09;1.33;;;1.10;;
8490;SDS011;4282;49.986;7.938;2023-08-17T05:32:37;2.57;;;1.30;;
8490;SDS011;4282;49.986;7.938;2023-08-17T05:35:07;1.50;;;1.20;;
8490;SDS011;4282;49.986;7.938;2023-08-17T05:37:36;1.37;;;1.20;;
8490;SDS011;4282;49.986;7.938;2023-08-17T05:40:07;2.22;;;1.25;;
8490;SDS011;4282;49.986;7.938;2023-08-17T05:42:36;1.13;;;1.03;;
8490;SDS011;4282;49.986;7.938;2023-08-17T05:45:05;1.27;;;1.17;;
8490;SDS011;4282;49.986;7.938;2023-08-17T05:47:34;3.03;;;1.08;;
8490;SDS011;4282;49.986;7.938;2023-08-17T05:50:02;0.80;;;0.80;;
8490;SDS011;4282;49.986;7.938;2023-08-17T05:52:31;1.40;;;0.90;;
8490;SDS011;4282;49.986;7.938;2023-08-17T05:54:59;1.58;;;0.75;;
8490;SDS011;4282;49.986;7.938;2023-08-17T05:57:30;0.70;;;0.70;;
8490;SDS011;4282;49.986;7.938;2023-08-17T05:59:59;0.50;;;0.50;;
8490;SDS011;4282;49.986;7.938;2023-08-17T06:02:27;3.63;;;0.80;;
8490;SDS011;4282;49.986;7.938;2023-08-17T06:04:56;1.27;;;0.70;;
8490;SDS011;4282;49.986;7.938;2023-08-17T06:07:24;1.50;;;0.70;;
8490;SDS011;4282;49.986;7.938;2023-08-17T06:09:52;0.70;;;0.70;;
8490;SDS011;4282;49.986;7.938;2023-08-17T06:12:20;1.85;;;0.68;;
8490;SDS011;4282;49.986;7.938;2023-08-17T06:14:51;0.70;;;0.47;;
8490;SDS011;4282;49.986;7.938;2023-08-17T06:17:19;1.00;;;0.70;;
8490;SDS011;4282;49.986;7.938;2023-08-17T06:19:48;1.85;;;0.80;;
8490;SDS011;4282;49.986;7.938;2023-08-17T06:22:16;0.60;;;0.60;;
8490;SDS011;4282;49.986;7.938;2023-08-17T06:24:44;0.80;;;0.80;;
8490;SDS011;4282;49.986;7.938;2023-08-17T06:27:13;1.27;;;0.70;;
8490;SDS011;4282;49.986;7.938;2023-08-17T06:29:42;1.70;;;0.70;;
8490;SDS011;4282;49.986;7.938;2023-08-17T06:32:13;0.70;;;0.68;;
8490;SDS011;4282;49.986;7.938;2023-08-17T06:34:41;1.20;;;0.57;;
8490;SDS011;4282;49.986;7.938;2023-08-17T06:37:10;1.83;;;0.50;;
8490;SDS011;4282;49.986;7.938;2023-08-17T06:39:38;0.60;;;0.60;;
8490;SDS011;4282;49.986;7.938;2023-08-17T06:42:06;0.65;;;0.65;;
8490;SDS011;4282;49.986;7.938;2023-08-17T06:44:35;0.65;;;0.50;;
8490;SDS011;4282;49.986;7.938;2023-08-17T06:47:03;1.52;;;0.68;;
8490;SDS011;4282;49.986;7.938;2023-08-17T06:49:35;0.73;;;0.73;;
8490;SDS011;4282;49.986;7.938;2023-08-17T06:52:03;0.70;;;0.57;;
8490;SDS011;4282;49.986;7.938;2023-08-17T06:54:32;0.60;;;0.60;;
8490;SDS011;4282;49.986;7.938;2023-08-17T06:57:00;1.02;;;0.68;;
8490;SDS011;4282;49.986;7.938;2023-08-17T06:59:28;1.30;;;0.50;;
8490;SDS011;4282;49.986;7.938;2023-08-17T07:01:58;1.35;;;0.70;;
8490;SDS011;4282;49.986;7.938;2023-08-17T07:04:26;0.40;;;0.40;;
8490;SDS011;4282;49.986;7.938;2023-08-17T07:06:57;0.70;;;0.50;;
8490;SDS011;4282;49.986;7.938;2023-08-17T07:09:25;0.65;;;0.45;;
8490;SDS011;4282;49.986;7.938;2023-08-17T07:11:55;2.00;;;0.70;;
8490;SDS011;4282;49.986;7.938;2023-08-17T07:14:23;0.60;;;0.60;;
8490;SDS011;4282;49.986;7.938;2023-08-17T07:16:53;0.40;;;0.40;;
8490;SDS011;4282;49.986;7.938;2023-08-17T07:19:21;1.83;;;0.60;;
8490;SDS011;4282;49.986;7.938;2023-08-17T07:21:50;0.68;;;0.68;;
8490;SDS011;4282;49.986;7.938;2023-08-17T07:24:21;0.70;;;0.60;;
8490;SDS011;4282;49.986;7.938;2023-08-17T07:26:49;3.40;;;0.50;;
8490;SDS011;4282;49.986;7.938;2023-08-17T07:29:17;0.50;;;0.50;;
8490;SDS011;4282;49.986;7.938;2023-08-17T07:31:45;1.50;;;0.50;;
8490;SDS011;4282;49.986;7.938;2023-08-17T07:34:13;0.80;;;0.50;;
8490;SDS011;4282;49.986;7.938;2023-08-17T07:36:42;0.73;;;0.50;;
8490;SDS011;4282;49.986;7.938;2023-08-17T07:39:10;0.68;;;0.65;;
8490;SDS011;4282;49.986;7.938;2023-08-17T07:41:41;0.68;;;0.57;;
8490;SDS011;4282;49.986;7.938;2023-08-17T07:44:09;0.45;;;0.45;;
8490;SDS011;4282;49.986;7.938;2023-08-17T07:46:37;0.40;;;0.40;;
8490;SDS011;4282;49.986;7.938;2023-08-17T07:49:06;0.98;;;0.50;;
8490;SDS011;4282;49.986;7.938;2023-08-17T07:51:34;0.55;;;0.50;;
8490;SDS011;4282;49.986;7.938;2023-08-17T07:54:03;0.60;;;0.60;;
8490;SDS011;4282;49.986;7.938;2023-08-17T07:56:31;0.70;;;0.60;;
8490;SDS011;4282;49.986;7.938;2023-08-17T07:59:02;0.50;;;0.50;;
8490;SDS011;4282;49.986;7.938;2023-08-17T08:01:31;0.88;;;0.60;;
8490;SDS011;4282;49.986;7.938;2023-08-17T08:03:59;0.90;;;0.90;;
8490;SDS011;4282;49.986;7.938;2023-08-17T08:06:28;0.70;;;0.70;;
8490;SDS011;4282;49.986;7.938;2023-08-17T08:08:56;0.50;;;0.50;;
8490;SDS011;4282;49.986;7.938;2023-08-17T08:11:24;0.75;;;0.60;;
8490;SDS011;4282;49.986;7.938;2023-08-17T08:13:55;0.57;;;0.57;;
8490;SDS011;4282;49.986;7.938;2023-08-17T08:16:26;0.60;;;0.60;;
8490;SDS011;4282;49.986;7.938;2023-08-17T08:18:55;0.60;;;0.60;;
8490;SDS011;4282;49.986;7.938;2023-08-17T08:21:23;0.70;;;0.57;;
8490;SDS011;4282;49.986;7.938;2023-08-17T08:23:52;0.50;;;0.50;;
8490;SDS011;4282;49.986;7.938;2023-08-17T08:26:21;0.60;;;0.60;;
8490;SDS011;4282;49.986;7.938;2023-08-17T08:28:49;0.52;;;0.52;;
8490;SDS011;4282;49.986;7.938;2023-08-17T08:31:17;1.05;;;0.60;;
8490;SDS011;4282;49.986;7.938;2023-08-17T08:33:48;1.20;;;0.60;;
8490;SDS011;4282;49.986;7.938;2023-08-17T08:36:20;1.42;;;0.63;;
8490;SDS011;4282;49.986;7.938;2023-08-17T08:38:48;1.40;;;0.60;;
8490;SDS011;4282;49.986;7.938;2023-08-17T08:41:17;0.82;;;0.80;;
8490;SDS011;4282;49.986;7.938;2023-08-17T08:43:45;0.70;;;0.70;;
8490;SDS011;4282;49.986;7.938;2023-08-17T08:46:13;1.45;;;0.70;;
8490;SDS011;4282;49.986;7.938;2023-08-17T08:48:49;1.85;;;0.90;;
8490;SDS011;4282;49.986;7.938;2023-08-17T08:51:19;0.77;;;0.77;;
8490;SDS011;4282;49.986;7.938;2023-08-17T08:53:52;0.73;;;0.73;;
8490;SDS011;4282;49.986;7.938;2023-08-17T08:56:25;0.60;;;0.60;;
8490;SDS011;4282;49.986;7.938;2023-08-17T08:58:53;0.60;;;0.60;;
8490;SDS011;4282;49.986;7.938;2023-08-17T09:01:22;0.95;;;0.73;;
8490;SDS011;4282;49.986;7.938;2023-08-17T09:03:53;2.40;;;0.80;;
8490;SDS011;4282;49.986;7.938;2023-08-17T09:06:21;0.70;;;0.70;;
8490;SDS011;4282;49.986;7.938;2023-08-17T09:08:51;0.80;;;0.80;;
8490;SDS011;4282;49.986;7.938;2023-08-17T09:11:19;1.20;;;0.68;;
8490;SDS011;4282;49.986;7.938;2023-08-17T09:13:47;1.20;;;0.68;;
8490;SDS011;4282;49.986;7.938;2023-08-17T09:16:16;1.75;;;0.70;;
8490;SDS011;4282;49.986;7.938;2023-08-17T09:18:44;1.52;;;0.73;;
8490;SDS011;4282;49.986;7.938;2023-08-17T09:21:22;0.80;;;0.80;;
8490;SDS011;4282;49.986;7.938;2023-08-17T09:23:51;2.20;;;0.82;;
8490;SDS011;4282;49.986;7.938;2023-08-17T09:26:20;0.80;;;0.80;;
8490;SDS011;4282;49.986;7.938;2023-08-17T09:28:49;1.55;;;1.20;;
8490;SDS011;4282;49.986;7.938;2023-08-17T09:31:20;1.02;;;0.93;;
8490;SDS011;4282;49.986;7.938;2023-08-17T09:33:49;1.83;;;0.80;;
8490;SDS011;4282;49.986;7.938;2023-08-17T09:36:22;1.08;;;1.00;;
8490;SDS011;4282;49.986;7.938;2023-08-17T09:38:52;1.02;;;0.80;;
8490;SDS011;4282;49.986;7.938;2023-08-17T09:41:22;0.90;;;0.88;;
8490;SDS011;4282;49.986;7.938;2023-08-17T09:43:50;1.90;;;1.00;;
8490;SDS011;4282;49.986;7.938;2023-08-17T09:46:18;1.48;;;1.00;;
8490;SDS011;4282;49.986;7.938;2023-08-17T09:48:47;1.10;;;1.00;;
8490;SDS011;4282;49.986;7.938;2023-08-17T09:51:15;1.73;;;1.00;;
8490;SDS011;4282;49.986;7.938;2023-08-17T09:53:51;1.10;;;1.00;;
8490;SDS011;4282;49.986;7.938;2023-08-17T09:56:20;1.17;;;0.95;;
8490;SDS011;4282;49.986;7.938;2023-08-17T09:58:49;0.90;;;0.90;;
8490;SDS011;4282;49.986;7.938;2023-08-17T10:01:18;3.55;;;0.90;;
8490;SDS011;4282;49.986;7.938;2023-08-17T10:03:46;2.75;;;1.00;;
8490;SDS011;4282;49.986;7.938;2023-08-17T10:06:17;0.90;;;0.90;;
8490;SDS011;4282;49.986;7.938;2023-08-17T10:08:51;0.90;;;0.90;;
8490;SDS011;4282;49.986;7.938;2023-08-17T10:11:21;1.60;;;1.38;;
8490;SDS011;4282;49.986;7.938;2023-08-17T10:13:51;1.52;;;1.10;;
8490;SDS011;4282;49.986;7.938;2023-08-17T10:16:22;1.10;;;1.05;;
8490;SDS011;4282;49.986;7.938;2023-08-17T10:18:53;3.85;;;1.05;;
8490;SDS011;4282;49.986;7.938;2023-08-17T10:21:24;1.10;;;1.05;;
8490;SDS011;4282;49.986;7.938;2023-08-17T10:23:58;1.63;;;1.00;;
8490;SDS011;4282;49.986;7.938;2023-08-17T10:26:26;1.10;;;0.98;;
8490;SDS011;4282;49.986;7.938;2023-08-17T10:28:54;1.60;;;0.98;;
8490;SDS011;4282;49.986;7.938;2023-08-17T10:31:25;1.17;;;1.08;;
8490;SDS011;4282;49.986;7.938;2023-08-17T10:33:53;1.00;;;0.90;;
8490;SDS011;4282;49.986;7.938;2023-08-17T10:36:22;1.23;;;1.13;;
8490;SDS011;4282;49.986;7.938;2023-08-17T10:41:49;2.08;;;1.10;;
8490;SDS011;4282;49.986;7.938;2023-08-17T10:44:18;2.17;;;1.48;;
8490;SDS011;4282;49.986;7.938;2023-08-17T10:47:18;2.22;;;1.40;;
8490;SDS011;4282;49.986;7.938;2023-08-17T10:49:48;1.05;;;1.05;;
8490;SDS011;4282;49.986;7.938;2023-08-17T10:52:24;1.70;;;1.60;;
8490;SDS011;4282;49.986;7.938;2023-08-17T10:54:56;3.30;;;1.60;;
8490;SDS011;4282;49.986;7.938;2023-08-17T10:57:30;1.42;;;1.33;;
8490;SDS011;4282;49.986;7.938;2023-08-17T11:02:45;1.95;;;1.70;;
8490;SDS011;4282;49.986;7.938;2023-08-17T11:08:08;4.32;;;1.77;;
8490;SDS011;4282;49.986;7.938;2023-08-17T11:10:41;2.47;;;1.70;;
8490;SDS011;4282;49.986;7.938;2023-08-17T11:13:15;1.55;;;1.38;;
8490;SDS011;4282;49.986;7.938;2023-08-17T11:15:44;1.58;;;1.48;;
8490;SDS011;4282;49.986;7.938;2023-08-17T11:18:13;1.35;;;1.25;;
8490;SDS011;4282;49.986;7.938;2023-08-17T11:20:41;1.60;;;1.30;;
8490;SDS011;4282;49.986;7.938;2023-08-17T11:23:10;1.70;;;1.27;;
8490;SDS011;4282;49.986;7.938;2023-08-17T11:25:38;1.73;;;1.60;;
8490;SDS011;4282;49.986;7.938;2023-08-17T11:28:09;1.80;;;1.23;;
8490;SDS011;4282;49.986;7.938;2023-08-17T11:30:39;1.42;;;1.25;;
8490;SDS011;4282;49.986;7.938;2023-08-17T11:33:08;1.50;;;1.40;;
8490;SDS011;4282;49.986;7.938;2023-08-17T11:35:37;1.90;;;1.75;;
8490;SDS011;4282;49.986;7.938;2023-08-17T11:38:05;1.33;;;1.15;;
8490;SDS011;4282;49.986;7.938;2023-08-17T11:40:34;1.60;;;1.50;;
8490;SDS011;4282;49.986;7.938;2023-08-17T11:43:03;1.75;;;1.15;;
8490;SDS011;4282;49.986;7.938;2023-08-17T11:45:34;2.67;;;1.25;;
8490;SDS011;4282;49.986;7.938;2023-08-17T11:48:55;2.10;;;1.50;;
8490;SDS011;4282;49.986;7.938;2023-08-17T11:51:29;1.30;;;1.20;;
8490;SDS011;4282;49.986;7.938;2023-08-17T11:53:58;1.80;;;1.08;;
8490;SDS011;4282;49.986;7.938;2023-08-17T11:56:29;1.42;;;1.33;;
8490;SDS011;4282;49.986;7.938;2023-08-17T11:58:58;1.40;;;1.30;;
8490;SDS011;4282;49.986;7.938;2023-08-17T12:01:26;2.88;;;1.10;;
8490;SDS011;4282;49.986;7.938;2023-08-17T12:03:57;1.55;;;1.40;;
8490;SDS011;4282;49.986;7.938;2023-08-17T12:06:25;1.40;;;1.30;;
8490;SDS011;4282;49.986;7.938;2023-08-17T12:08:53;1.50;;;1.40;;
8490;SDS011;4282;49.986;7.938;2023-08-17T12:11:23;1.48;;;1.25;;
8490;SDS011;4282;49.986;7.938;2023-08-17T12:13:52;2.83;;;1.20;;
8490;SDS011;4282;49.986;7.938;2023-08-17T12:16:21;1.33;;;1.20;;
8490;SDS011;4282;49.986;7.938;2023-08-17T12:18:50;2.70;;;1.42;;
8490;SDS011;4282;49.986;7.938;2023-08-17T12:21:22;1.45;;;1.15;;
8490;SDS011;4282;49.986;7.938;2023-08-17T12:23:50;1.27;;;1.17;;
8490;SDS011;4282;49.986;7.938;2023-08-17T12:26:18;1.63;;;1.23;;
8490;SDS011;4282;49.986;7.938;2023-08-17T12:28:47;1.58;;;1.48;;
8490;SDS011;4282;49.986;7.938;2023-08-17T12:31:20;1.60;;;1.40;;
8490;SDS011;4282;49.986;7.938;2023-08-17T12:33:49;1.50;;;1.40;;
8490;SDS011;4282;49.986;7.938;2023-08-17T12:36:17;1.88;;;1.30;;
8490;SDS011;4282;49.986;7.938;2023-08-17T12:38:49;1.50;;;1.40;;
8490;SDS011;4282;49.986;7.938;2023-08-17T12:41:17;1.50;;;1.40;;
8490;SDS011;4282;49.986;7.938;2023-08-17T12:43:45;2.20;;;1.38;;
8490;SDS011;4282;49.986;7.938;2023-08-17T12:46:14;2.60;;;1.48;;
8490;SDS011;4282;49.986;7.938;2023-08-17T12:48:42;2.08;;;1.63;;
8490;SDS011;4282;49.986;7.938;2023-08-17T12:51:10;3.30;;;1.90;;
8490;SDS011;4282;49.986;7.938;2023-08-17T12:53:40;3.47;;;1.33;;
8490;SDS011;4282;49.986;7.938;2023-08-17T12:56:11;1.65;;;1.50;;
8490;SDS011;4282;49.986;7.938;2023-08-17T12:58:39;1.70;;;1.40;;
8490;SDS011;4282;49.986;7.938;2023-08-17T13:01:08;3.33;;;1.40;;
8490;SDS011;4282;49.986;7.938;2023-08-17T13:03:36;1.27;;;1.17;;
8490;SDS011;4282;49.986;7.938;2023-08-17T13:06:05;2.17;;;1.25;;
8490;SDS011;4282;49.986;7.938;2023-08-17T13:08:33;2.85;;;1.55;;
8490;SDS011;4282;49.986;7.938;2023-08-17T13:11:01;1.42;;;1.33;;
8490;SDS011;4282;49.986;7.938;2023-08-17T13:13:32;1.60;;;1.50;;
8490;SDS011;4282;49.986;7.938;2023-08-17T13:16:01;1.30;;;1.20;;
8490;SDS011;4282;49.986;7.938;2023-08-17T13:18:29;1.10;;;1.08;;
8490;SDS011;4282;49.986;7.938;2023-08-17T13:20:57;3.63;;;1.55;;
8490;SDS011;4282;49.986;7.938;2023-08-17T13:23:25;1.52;;;1.30;;
8490;SDS011;4282;49.986;7.938;2023-08-17T13:25:54;1.48;;;1.38;;
8490;SDS011;4282;49.986;7.938;2023-08-17T13:28:22;1.35;;;1.25;;
8490;SDS011;4282;49.986;7.938;2023-08-17T13:30:53;1.25;;;1.13;;
8490;SDS011;4282;49.986;7.938;2023-08-17T13:33:21;1.63;;;1.38;;
8490;SDS011;4282;49.986;7.938;2023-08-17T13:35:49;1.48;;;1.38;;
8490;SDS011;4282;49.986;7.938;2023-08-17T13:38:18;1.38;;;1.27;;
8490;SDS011;4282;49.986;7.938;2023-08-17T13:40:46;1.45;;;1.30;;
8490;SDS011;4282;49.986;7.938;2023-08-17T13:43:15;1.42;;;1.33;;
8490;SDS011;4282;49.986;7.938;2023-08-17T13:45:43;1.70;;;1.38;;
8490;SDS011;4282;49.986;7.938;2023-08-17T13:48:14;1.58;;;1.30;;
8490;SDS011;4282;49.986;7.938;2023-08-17T13:50:42;1.63;;;1.42;;
8490;SDS011;4282;49.986;7.938;2023-08-17T13:53:10;1.30;;;1.20;;
8490;SDS011;4282;49.986;7.938;2023-08-17T13:55:39;1.23;;;1.13;;
8490;SDS011;4282;49.986;7.938;2023-08-17T13:58:07;1.75;;;1.63;;
8490;SDS011;4282;49.986;7.938;2023-08-17T14:00:36;1.88;;;1.67;;
8490;SDS011;4282;49.986;7.938;2023-08-17T14:03:04;1.30;;;1.20;;
8490;SDS011;4282;49.986;7.938;2023-08-17T14:05:36;2.15;;;1.40;;
8490;SDS011;4282;49.986;7.938;2023-08-17T14:08:05;2.70;;;1.30;;
8490;SDS011;4282;49.986;7.938;2023-08-17T14:10:36;1.52;;;1.42;;
8490;SDS011;4282;49.986;7.938;2023-08-17T14:13:04;2.30;;;1.50;;
8490;SDS011;4282;49.986;7.938;2023-08-17T14:15:33;2.58;;;1.20;;
8490;SDS011;4282;49.986;7.938;2023-08-17T14:18:01;1.42;;;1.20;;
8490;SDS011;4282;49.986;7.938;2023-08-17T14:20:29;2.70;;;1.50;;
8490;SDS011;4282;49.986;7.938;2023-08-17T14:23:00;2.40;;;1.58;;
8490;SDS011;4282;49.986;7.938;2023-08-17T14:25:28;2.03;;;1.27;;
8490;SDS011;4282;49.986;7.938;2023-08-17T14:27:57;1.38;;;1.27;;
8490;SDS011;4282;49.986;7.938;2023-08-17T14:30:25;1.92;;;1.60;;
8490;SDS011;4282;49.986;7.938;2023-08-17T14:32:53;1.48;;;1.35;;
8490;SDS011;4282;49.986;7.938;2023-08-17T14:35:22;1.83;;;1.20;;
8490;SDS011;4282;49.986;7.938;2023-08-17T14:37:50;1.52;;;1.40;;
8490;SDS011;4282;49.986;7.938;2023-08-17T14:40:21;1.23;;;1.15;;
8490;SDS011;4282;49.986;7.938;2023-08-17T14:42:49;1.85;;;1.40;;
8490;SDS011;4282;49.986;7.938;2023-08-17T14:45:17;1.67;;;1.58;;
8490;SDS011;4282;49.986;7.938;2023-08-17T14:47:46;2.53;;;1.50;;
8490;SDS011;4282;49.986;7.938;2023-08-17T14:50:14;1.95;;;1.70;;
8490;SDS011;4282;49.986;7.938;2023-08-17T14:52:42;2.53;;;1.55;;
8490;SDS011;4282;49.986;7.938;2023-08-17T14:55:11;2.03;;;1.40;;
8490;SDS011;4282;49.986;7.938;2023-08-17T14:57:42;3.10;;;1.60;;
8490;SDS011;4282;49.986;7.938;2023-08-17T15:00:11;2.05;;;1.80;;
8490;SDS011;4282;49.986;7.938;2023-08-17T15:02:40;2.00;;;1.60;;
8490;SDS011;4282;49.986;7.938;2023-08-17T15:05:09;1.60;;;1.50;;
8490;SDS011;4282;49.986;7.938;2023-08-17T15:07:37;1.98;;;1.77;;
8490;SDS011;4282;49.986;7.938;2023-08-17T15:10:06;1.85;;;1.58;;
8490;SDS011;4282;49.986;7.938;2023-08-17T15:12:34;1.60;;;1.50;;
8490;SDS011;4282;49.986;7.938;2023-08-17T15:15:05;2.28;;;1.73;;
8490;SDS011;4282;49.986;7.938;2023-08-17T15:17:35;1.98;;;1.58;;
8490;SDS011;4282;49.986;7.938;2023-08-17T15:20:03;1.73;;;1.50;;
8490;SDS011;4282;49.986;7.938;2023-08-17T15:22:33;3.15;;;1.77;;
8490;SDS011;4282;49.986;7.938;2023-08-17T15:25:01;2.00;;;1.40;;
8490;SDS011;4282;49.986;7.938;2023-08-17T15:27:29;3.08;;;1.48;;
8490;SDS011;4282;49.986;7.938;2023-08-17T15:29:58;1.88;;;1.33;;
8490;SDS011;4282;49.986;7.938;2023-08-17T15:32:29;2.88;;;1.60;;
8490;SDS011;4282;49.986;7.938;2023-08-17T15:34:57;2.20;;;1.50;;
8490;SDS011;4282;49.986;7.938;2023-08-17T15:37:26;3.92;;;1.70;;